New Rooks County (RCP)
Stockton, KS
Field Elevation: 1999
Lat: 39°20.80N  Long: 99°18.28W
CTAF/Unicom Freq: 122.9000
   
    
Weather Advisories
2015-07-01   20:09 Z
Altimeter 29.85" Hg
Wind 010° @ 14 KT
Gusts 18 KT
Visibility 10 SM
Temperature 34° C (93° F)
Dewpoint 17° C (63° F)
Relative Humidity 35%
Density Altitude 4,700 feet
Condensation Altitude 10,900 feet
Heat Index: 34° C (93° F)
Wind and Runways
Indicated Runway = 36
Headwind = 14 kt
Crosswind = 2 kt
History
 
 
 
More Info
All DigiWx sites map
NOAA Forecast
 
Airport IQ 5010
(FLV) Sherman Airfield
(K68) Garnett Municipal Airport
 
about DigiWx
 
FAA Disclaimer: The data displayed is for advisory purposes only and is not to be used for flight planning or operations. For official data, please call (not available) to hear the current automated AWOS voice message.
  METAR RCP 012009Z AUTO 01014G18KT VIS 10 SM 34/17 A2985